Ortley Beach, New Jersey
Current Conditions -  °F | °C
As of 9:15 PM on Saturday 25 Oct 2014 (Local Time) from KMJX Reporting Station
Scattered Clouds Scattered Clouds  
Wind Chill: 57°   Ceiling: Unl
Heat Index: 57°   Visibility: 10mi
Dew Point: 45°   Wind: 7mph
Humidity: 63%   Direction: 230°SW
Pressure: 29.68"   Gusts: NA
Location:  39.9485°N, 74.0761°W
Report Text: KMJX 260115Z AUTO 23006KT 10SM SCT065 14/07 A2968 RMK AO1
Loading
Personal Weather Stations






























Interactive Weather Map
Tropical Storm Tracking
New forecast layout! Learn more

10-Day Weather Forecast

Advertisements
Track Severe Weather on mobile